Time;durP1;ratioP1;P1;durP2;ratioP2;P2;SDS_P1;SDS_P2;PMS_P1;PMS_P2;Temp;Humidity;BMP_temperature;BMP_pressure;BME280_temperature;BME280_humidity;BME280_pressure;Samples;Min_cycle;Max_cycle;Signal;HPM_P1;HPM_P2
2021/08/29 00:01:01;;;;;;;5.85;1.70;;;23.00;60.60;;;;;;5051858;28;20502;-50
2021/08/29 00:03:26;;;;;;;1.40;1.20;;;22.90;60.60;;;;;;5051864;28;20036;-49
2021/08/29 00:05:53;;;;;;;2.25;1.48;;;22.90;60.90;;;;;;5050771;28;20033;-48
2021/08/29 00:08:19;;;;;;;1.45;1.17;;;22.90;60.90;;;;;;5051537;28;20474;-47
2021/08/29 00:10:44;;;;;;;1.50;1.13;;;22.90;60.90;;;;;;5050758;28;20036;-55
2021/08/29 00:13:10;;;;;;;1.30;1.20;;;22.90;60.80;;;;;;5051171;28;20039;-48
2021/08/29 00:15:38;;;;;;;1.38;1.15;;;22.90;61.00;;;;;;5051649;28;20033;-47
2021/08/29 00:18:04;;;;;;;1.80;1.20;;;22.90;60.90;;;;;;5050908;28;20104;-47
2021/08/29 00:20:30;;;;;;;1.55;1.27;;;22.90;60.90;;;;;;5051277;28;20029;-49
2021/08/29 00:22:55;;;;;;;1.42;1.02;;;22.90;60.70;;;;;;5050559;28;20031;-48
2021/08/29 00:25:21;;;;;;;1.75;1.65;;;22.90;60.90;;;;;;5051375;28;20033;-50
2021/08/29 00:27:47;;;;;;;2.15;1.52;;;22.90;60.90;;;;;;5050585;28;20463;-55
2021/08/29 00:30:13;;;;;;;1.65;1.17;;;22.90;60.70;;;;;;5051550;28;20028;-47
2021/08/29 00:32:39;;;;;;;1.33;1.17;;;22.90;60.70;;;;;;5051164;28;20119;-48
2021/08/29 00:35:05;;;;;;;1.70;1.30;;;22.90;60.70;;;;;;5050600;28;20033;-47
2021/08/29 00:37:31;;;;;;;2.17;1.30;;;22.90;60.60;;;;;;5051313;28;20033;-49
2021/08/29 00:39:56;;;;;;;1.83;1.58;;;22.90;60.60;;;;;;5051026;28;20017;-48
2021/08/29 00:42:22;;;;;;;1.40;1.20;;;22.90;60.90;;;;;;5051813;28;20429;-47
2021/08/29 00:44:49;;;;;;;1.10;0.98;;;22.90;60.70;;;;;;5051084;28;20463;-47
2021/08/29 00:47:15;;;;;;;1.23;1.10;;;22.90;60.60;;;;;;5051706;28;20033;-48
2021/08/29 00:49:41;;;;;;;1.88;1.38;;;22.90;60.70;;;;;;5051392;28;20040;-48
2021/08/29 00:52:07;;;;;;;2.10;1.73;;;22.90;60.60;;;;;;5051219;28;20026;-48
2021/08/29 00:54:34;;;;;;;1.70;1.40;;;22.90;60.80;;;;;;5051699;28;20033;-47
2021/08/29 00:57:07;;;;;;;2.25;1.75;;;22.90;60.80;;;;;;5050772;28;20429;-47
2021/08/29 00:59:33;;;;;;;2.22;1.35;;;22.90;60.70;;;;;;5051348;28;20045;-47
2021/08/29 01:02:05;;;;;;;2.42;1.40;;;22.90;61.00;;;;;;5052530;28;20037;-47
2021/08/29 01:04:35;;;;;;;2.08;1.48;;;22.80;60.80;;;;;;5055196;28;20037;-48
2021/08/29 01:07:08;;;;;;;2.88;1.42;;;22.80;60.60;;;;;;5054543;28;20025;-47
2021/08/29 01:09:36;;;;;;;2.05;1.52;;;22.80;60.30;;;;;;5055100;28;20017;-50
2021/08/29 01:12:03;;;;;;;1.40;1.30;;;22.80;60.60;;;;;;5054333;28;20021;-48
2021/08/29 01:14:31;;;;;;;1.55;1.42;;;22.80;60.20;;;;;;5055399;28;20033;-47
2021/08/29 01:16:59;;;;;;;1.80;1.20;;;22.80;60.40;;;;;;5053957;28;20036;-48
2021/08/29 01:20:04;;;;;;;2.10;1.38;;;22.80;60.50;;;;;;5055065;28;20052;-47
2021/08/29 01:22:31;;;;;;;2.22;1.40;;;22.80;60.50;;;;;;5054975;28;20025;-47
2021/08/29 01:24:59;;;;;;;2.05;1.77;;;22.80;60.20;;;;;;5053504;28;20037;-48
2021/08/29 01:27:32;;;;;;;1.50;1.40;;;22.80;60.10;;;;;;5054285;28;20484;-47
2021/08/29 01:30:00;;;;;;;1.88;1.45;;;22.80;60.30;;;;;;5053730;28;20072;-48
2021/08/29 01:32:25;;;;;;;1.88;1.40;;;22.80;60.30;;;;;;5054074;28;20045;-48
2021/08/29 01:34:53;;;;;;;1.88;1.35;;;22.80;60.30;;;;;;5053254;28;20387;-48
2021/08/29 01:37:19;;;;;;;1.80;1.35;;;22.80;60.20;;;;;;5052962;28;20037;-47
2021/08/29 01:39:45;;;;;;;1.80;1.40;;;22.80;60.20;;;;;;5054198;28;20067;-48
2021/08/29 01:42:12;;;;;;;1.85;1.48;;;22.70;60.00;;;;;;5051998;28;20036;-48
2021/08/29 01:44:39;;;;;;;1.80;1.38;;;22.70;60.20;;;;;;5054140;28;20033;-48
2021/08/29 01:47:05;;;;;;;1.67;1.58;;;22.80;60.60;;;;;;5053253;28;20029;-48
2021/08/29 01:49:31;;;;;;;1.30;1.20;;;22.80;60.50;;;;;;5053866;28;20386;-50
2021/08/29 01:51:57;;;;;;;2.33;1.50;;;22.80;60.50;;;;;;5053141;28;20032;-48
2021/08/29 01:54:22;;;;;;;1.60;1.30;;;22.80;59.90;;;;;;5053636;28;20037;-47
2021/08/29 01:57:03;;;;;;;1.80;1.50;;;22.70;60.10;;;;;;5053303;28;20029;-55
2021/08/29 01:59:30;;;;;;;2.42;1.65;;;22.80;60.50;;;;;;5053510;28;20138;-47
2021/08/29 02:01:57;;;;;;;1.50;1.38;;;22.70;60.10;;;;;;5053092;28;20060;-49
2021/08/29 02:04:25;;;;;;;1.50;1.40;;;22.80;60.20;;;;;;5053682;28;20128;-47
2021/08/29 02:07:01;;;;;;;2.45;1.67;;;22.70;60.20;;;;;;5053040;28;20100;-55
2021/08/29 02:09:29;;;;;;;2.40;1.70;;;22.70;60.70;;;;;;5052396;28;20021;-47
2021/08/29 02:11:56;;;;;;;1.80;1.48;;;22.70;60.10;;;;;;5052586;28;20029;-47
2021/08/29 02:14:32;;;;;;;1.80;1.50;;;22.70;60.50;;;;;;5052185;28;20115;-49
2021/08/29 02:16:58;;;;;;;1.80;1.38;;;22.80;60.50;;;;;;5052760;28;20523;-49
2021/08/29 02:19:27;;;;;;;2.28;1.30;;;22.70;60.20;;;;;;5053805;28;20071;-49
2021/08/29 02:21:54;;;;;;;2.40;1.70;;;22.70;60.40;;;;;;5052193;28;20096;-49
2021/08/29 02:24:28;;;;;;;1.95;1.65;;;22.70;60.50;;;;;;5053264;28;20044;-47
2021/08/29 02:26:55;;;;;;;1.70;1.33;;;22.80;60.70;;;;;;5052186;28;20161;-47
2021/08/29 02:29:21;;;;;;;1.35;1.20;;;22.80;60.50;;;;;;5052717;28;20029;-48
2021/08/29 02:31:49;;;;;;;1.90;1.70;;;22.70;60.30;;;;;;5052791;28;20087;-55
2021/08/29 02:34:16;;;;;;;1.58;1.45;;;22.70;60.30;;;;;;5052862;28;20091;-47
2021/08/29 02:36:42;;;;;;;1.40;1.30;;;22.80;60.80;;;;;;5053079;28;20063;-47
2021/08/29 02:39:10;;;;;;;1.40;1.20;;;22.70;60.60;;;;;;5052263;28;20104;-47
2021/08/29 02:41:36;;;;;;;1.80;1.35;;;22.80;60.60;;;;;;5053205;28;20028;-49
2021/08/29 02:44:04;;;;;;;1.63;1.50;;;22.80;60.50;;;;;;5051918;28;20033;-49
2021/08/29 02:46:29;;;;;;;1.52;1.33;;;22.70;60.40;;;;;;5052796;28;20033;-47
2021/08/29 02:48:55;;;;;;;1.95;1.50;;;22.70;60.10;;;;;;5052113;28;20035;-48
2021/08/29 02:51:23;;;;;;;2.90;1.40;;;22.70;60.50;;;;;;5052773;28;20063;-48
2021/08/29 02:53:48;;;;;;;2.65;1.52;;;22.70;60.70;;;;;;5051940;28;20470;-55
2021/08/29 02:56:18;;;;;;;2.47;1.52;;;22.70;60.60;;;;;;5052098;28;20037;-47
2021/08/29 02:58:45;;;;;;;1.52;1.42;;;22.70;60.60;;;;;;5052419;28;20025;-47
2021/08/29 03:01:11;;;;;;;2.35;1.25;;;22.70;60.60;;;;;;5052047;28;20107;-48
2021/08/29 03:03:37;;;;;;;1.60;1.30;;;22.70;60.40;;;;;;5052317;28;20056;-53
2021/08/29 03:06:03;;;;;;;2.33;1.40;;;22.70;60.60;;;;;;5051507;28;20041;-47
2021/08/29 03:08:29;;;;;;;1.90;1.35;;;22.70;60.60;;;;;;5052545;28;20106;-48
2021/08/29 03:10:56;;;;;;;1.88;1.40;;;22.70;60.50;;;;;;5051544;28;20063;-47
2021/08/29 03:13:21;;;;;;;2.00;1.50;;;22.70;60.50;;;;;;5051986;28;20437;-47
2021/08/29 03:15:47;;;;;;;2.13;1.27;;;22.70;60.20;;;;;;5052267;28;20087;-53
2021/08/29 03:18:14;;;;;;;1.30;1.17;;;22.70;60.30;;;;;;5050404;28;20128;-47
2021/08/29 03:20:41;;;;;;;1.38;1.27;;;22.70;60.80;;;;;;5052154;28;20025;-49
2021/08/29 03:23:07;;;;;;;1.48;1.25;;;22.70;60.30;;;;;;5051155;28;20470;-47
2021/08/29 03:25:34;;;;;;;1.95;1.40;;;22.70;60.50;;;;;;5051850;28;20051;-48
2021/08/29 03:27:59;;;;;;;1.55;1.30;;;22.70;60.60;;;;;;5050006;28;20025;-48
2021/08/29 03:30:25;;;;;;;1.50;1.35;;;22.70;60.70;;;;;;5051718;28;20052;-48
2021/08/29 03:32:51;;;;;;;1.70;1.40;;;22.70;61.10;;;;;;5052018;28;20036;-49
2021/08/29 03:35:17;;;;;;;2.45;1.20;;;22.70;60.20;;;;;;5052569;28;20075;-47
2021/08/29 03:37:44;;;;;;;1.55;1.33;;;22.70;60.30;;;;;;5052272;28;20092;-47
2021/08/29 03:40:11;;;;;;;1.65;1.40;;;22.70;60.20;;;;;;5051765;28;20450;-48
2021/08/29 03:42:38;;;;;;;2.03;1.45;;;22.70;60.10;;;;;;5052668;28;20465;-48
2021/08/29 03:45:06;;;;;;;2.65;1.23;;;22.70;59.90;;;;;;5051701;28;20070;-49
2021/08/29 03:47:34;;;;;;;1.45;1.10;;;22.70;60.50;;;;;;5052484;28;20028;-48
2021/08/29 03:50:00;;;;;;;1.88;1.50;;;22.70;60.60;;;;;;5052054;28;20107;-48
2021/08/29 03:52:25;;;;;;;2.08;1.30;;;22.70;60.40;;;;;;5052500;28;20100;-49
2021/08/29 03:54:51;;;;;;;1.48;1.33;;;22.70;60.00;;;;;;5051471;28;20481;-54
2021/08/29 03:57:17;;;;;;;1.75;1.38;;;22.70;60.10;;;;;;5051340;28;20132;-50
2021/08/29 03:59:43;;;;;;;1.88;1.33;;;22.70;60.00;;;;;;5051593;28;20394;-48
2021/08/29 04:02:09;;;;;;;1.48;1.20;;;22.70;60.20;;;;;;5050636;28;20037;-48
2021/08/29 04:04:36;;;;;;;2.08;1.35;;;22.70;60.20;;;;;;5051376;28;20066;-48
2021/08/29 04:07:04;;;;;;;1.17;1.08;;;22.70;60.30;;;;;;5050991;28;20382;-49
2021/08/29 04:09:31;;;;;;;1.33;1.23;;;22.70;60.30;;;;;;5051805;28;20029;-48
2021/08/29 04:11:57;;;;;;;1.48;1.38;;;22.70;60.90;;;;;;5050392;28;20040;-50
2021/08/29 04:14:24;;;;;;;1.90;1.25;;;22.70;60.40;;;;;;5051524;28;20029;-47
2021/08/29 04:16:50;;;;;;;2.25;2.00;;;22.70;60.10;;;;;;5051255;28;20025;-53
2021/08/29 04:19:21;;;;;;;1.33;1.00;;;22.70;59.80;;;;;;5051035;28;20367;-47
2021/08/29 04:21:47;;;;;;;1.70;1.40;;;22.70;60.00;;;;;;5051664;28;20100;-48
2021/08/29 04:24:13;;;;;;;1.58;1.35;;;22.70;60.10;;;;;;5050737;28;20111;-47
2021/08/29 04:26:39;;;;;;;1.83;1.40;;;22.70;60.10;;;;;;5051684;28;20033;-47
2021/08/29 04:29:05;;;;;;;1.40;1.20;;;22.70;60.10;;;;;;5050503;28;20037;-47
2021/08/29 04:31:33;;;;;;;1.70;1.27;;;22.70;60.20;;;;;;5051060;28;20040;-49
2021/08/29 04:34:07;;;;;;;1.23;1.08;;;22.70;60.30;;;;;;5049595;28;20047;-48
2021/08/29 04:36:35;;;;;;;1.60;1.40;;;22.70;60.30;;;;;;5051949;28;20025;-47
2021/08/29 04:39:05;;;;;;;2.15;1.33;;;22.70;60.30;;;;;;5054549;28;20070;-47
2021/08/29 04:41:31;;;;;;;1.38;1.10;;;22.70;60.10;;;;;;5055183;28;20029;-48
2021/08/29 04:43:57;;;;;;;1.60;1.23;;;22.70;60.20;;;;;;5054036;28;20024;-48
2021/08/29 04:46:22;;;;;;;1.90;1.13;;;22.70;60.20;;;;;;5054861;28;20355;-47
2021/08/29 04:48:48;;;;;;;1.50;1.38;;;22.70;60.20;;;;;;5055201;28;20036;-47
2021/08/29 04:51:13;;;;;;;1.20;1.02;;;22.70;60.10;;;;;;5053850;28;20032;-47
2021/08/29 04:53:39;;;;;;;1.58;1.05;;;22.70;60.20;;;;;;5055064;28;20032;-48
2021/08/29 04:56:05;;;;;;;1.60;1.50;;;22.70;60.00;;;;;;5053749;28;20029;-49
2021/08/29 04:58:30;;;;;;;3.50;1.83;;;22.70;60.20;;;;;;5054794;28;20021;-50
2021/08/29 05:00:56;;;;;;;1.38;1.27;;;22.70;60.30;;;;;;5053358;28;20057;-48
2021/08/29 05:03:21;;;;;;;1.35;1.10;;;22.70;60.20;;;;;;5053589;28;20039;-48
2021/08/29 05:05:47;;;;;;;1.50;1.30;;;22.70;60.20;;;;;;5054824;28;20029;-46
2021/08/29 05:08:13;;;;;;;1.30;1.10;;;22.70;60.10;;;;;;5053897;28;20108;-48
2021/08/29 05:10:39;;;;;;;1.45;1.25;;;22.70;60.10;;;;;;5054697;28;20021;-47
2021/08/29 05:13:04;;;;;;;1.25;1.10;;;22.70;60.10;;;;;;5053704;28;20108;-48
2021/08/29 05:15:30;;;;;;;2.28;1.13;;;22.70;60.10;;;;;;5054085;28;20124;-49
2021/08/29 05:17:57;;;;;;;1.23;1.00;;;22.70;60.00;;;;;;5054142;28;20036;-55
2021/08/29 05:20:23;;;;;;;1.25;1.02;;;22.70;60.10;;;;;;5054552;28;20056;-47
2021/08/29 05:22:49;;;;;;;2.55;1.20;;;22.70;59.90;;;;;;5054642;28;20090;-47
2021/08/29 05:25:14;;;;;;;3.30;1.67;;;22.70;59.80;;;;;;5053100;28;20678;-47
2021/08/29 05:27:40;;;;;;;1.00;0.90;;;22.60;59.60;;;;;;5054505;28;20029;-49
2021/08/29 05:30:06;;;;;;;1.90;1.05;;;22.70;59.90;;;;;;5053491;28;20040;-47
2021/08/29 05:32:31;;;;;;;2.00;1.30;;;22.60;59.70;;;;;;5053738;28;20379;-47
2021/08/29 05:34:57;;;;;;;1.33;1.23;;;22.60;59.60;;;;;;5053391;28;20036;-48
2021/08/29 05:37:23;;;;;;;1.90;1.30;;;22.60;59.50;;;;;;5054299;28;20028;-48
2021/08/29 05:39:48;;;;;;;1.20;1.00;;;22.60;59.40;;;;;;5054435;28;20465;-47
2021/08/29 05:42:14;;;;;;;1.55;1.10;;;22.60;59.80;;;;;;5053624;28;20095;-47
2021/08/29 05:44:40;;;;;;;1.27;1.15;;;22.60;59.70;;;;;;5052708;28;20033;-49
2021/08/29 05:47:05;;;;;;;1.10;1.00;;;22.70;59.90;;;;;;5051841;28;20485;-49
2021/08/29 05:49:31;;;;;;;1.60;1.02;;;22.70;59.70;;;;;;5053810;28;20482;-47
2021/08/29 05:51:56;;;;;;;1.00;0.80;;;22.70;59.70;;;;;;5053297;28;20427;-54
2021/08/29 05:54:22;;;;;;;2.47;1.30;;;22.70;60.30;;;;;;5053585;28;20108;-47
2021/08/29 05:56:48;;;;;;;1.42;1.00;;;22.60;59.60;;;;;;5054207;28;20029;-47
2021/08/29 05:59:13;;;;;;;2.05;1.08;;;22.60;59.60;;;;;;5052495;28;20028;-47
2021/08/29 06:01:39;;;;;;;1.05;0.95;;;22.60;59.70;;;;;;5053793;28;20083;-47
2021/08/29 06:04:05;;;;;;;2.58;0.95;;;22.70;59.70;;;;;;5052615;28;20029;-47
2021/08/29 06:06:33;;;;;;;2.90;0.90;;;22.70;59.70;;;;;;5053676;28;20118;-48
2021/08/29 06:08:59;;;;;;;1.38;1.08;;;22.70;59.90;;;;;;5052823;28;20025;-47
2021/08/29 06:11:25;;;;;;;1.05;0.75;;;22.70;59.80;;;;;;5053647;28;20035;-47
2021/08/29 06:13:50;;;;;;;2.13;1.13;;;22.70;59.60;;;;;;5053521;28;20480;-49
2021/08/29 06:16:16;;;;;;;1.30;1.17;;;22.70;59.30;;;;;;5052478;28;20079;-47
2021/08/29 06:18:41;;;;;;;1.88;1.13;;;22.70;59.60;;;;;;5053532;28;20489;-48
2021/08/29 06:21:07;;;;;;;1.83;1.10;;;22.70;59.60;;;;;;5052460;28;20120;-47
2021/08/29 06:23:33;;;;;;;1.02;0.82;;;22.70;59.70;;;;;;5053470;28;20060;-47
2021/08/29 06:25:58;;;;;;;1.02;0.93;;;22.60;59.50;;;;;;5052407;28;20394;-48
2021/08/29 06:28:24;;;;;;;1.45;1.05;;;22.60;59.30;;;;;;5053254;28;20542;-50
2021/08/29 06:30:50;;;;;;;1.40;1.10;;;22.60;59.40;;;;;;5053016;28;20025;-47
2021/08/29 06:33:15;;;;;;;1.08;0.98;;;22.60;59.40;;;;;;5052156;28;20028;-47
2021/08/29 06:35:41;;;;;;;1.30;0.80;;;22.60;59.30;;;;;;5053110;28;20455;-47
2021/08/29 06:38:06;;;;;;;1.10;1.00;;;22.60;59.40;;;;;;5052347;28;20025;-47
2021/08/29 06:40:32;;;;;;;1.55;1.15;;;22.60;59.30;;;;;;5052558;28;20029;-49
2021/08/29 06:42:58;;;;;;;1.23;1.00;;;22.60;59.30;;;;;;5052108;28;20029;-55
2021/08/29 06:45:23;;;;;;;1.42;0.90;;;22.60;59.20;;;;;;5052845;28;20032;-47
2021/08/29 06:47:49;;;;;;;2.20;0.70;;;22.60;59.20;;;;;;5050659;28;20444;-47
2021/08/29 06:50:15;;;;;;;0.70;0.70;;;22.60;59.00;;;;;;5052003;28;20024;-48
2021/08/29 06:52:40;;;;;;;1.88;0.90;;;22.60;59.80;;;;;;5052809;28;20456;-47
2021/08/29 06:55:06;;;;;;;0.98;0.88;;;22.60;59.20;;;;;;5051658;28;20028;-47
2021/08/29 06:57:32;;;;;;;1.88;1.00;;;22.60;59.10;;;;;;5052982;28;20028;-48
2021/08/29 06:59:58;;;;;;;1.38;1.05;;;22.60;59.10;;;;;;5049970;28;20053;-55
2021/08/29 07:02:23;;;;;;;1.30;0.90;;;22.60;59.00;;;;;;5052266;28;20441;-48
2021/08/29 07:04:49;;;;;;;0.80;0.65;;;22.60;59.00;;;;;;5051965;28;20045;-48
2021/08/29 07:07:15;;;;;;;1.00;0.70;;;22.60;58.90;;;;;;5051706;28;20033;-48
2021/08/29 07:09:41;;;;;;;0.70;0.65;;;22.60;59.00;;;;;;5052175;28;20024;-47
2021/08/29 07:12:09;;;;;;;0.88;0.73;;;22.60;59.00;;;;;;5051419;28;20429;-47
2021/08/29 07:14:35;;;;;;;0.98;0.65;;;22.60;59.10;;;;;;5051314;28;20033;-48
2021/08/29 07:17:00;;;;;;;1.20;0.63;;;22.60;58.90;;;;;;5051510;28;20040;-52
2021/08/29 07:19:26;;;;;;;0.85;0.65;;;22.60;58.80;;;;;;5052243;28;20029;-47
2021/08/29 07:21:52;;;;;;;0.90;0.70;;;22.60;58.80;;;;;;5052310;28;20561;-47
2021/08/29 07:24:17;;;;;;;0.70;0.70;;;22.50;58.80;;;;;;5051450;28;20033;-47
2021/08/29 07:26:43;;;;;;;2.22;0.80;;;22.60;59.20;;;;;;5051941;28;20120;-48
2021/08/29 07:29:09;;;;;;;11.73;0.93;;;22.70;59.50;;;;;;5051088;28;20070;-49
2021/08/29 07:31:34;;;;;;;4.30;0.90;;;22.80;59.40;;;;;;5052749;28;20095;-49
2021/08/29 07:34:00;;;;;;;3.05;0.90;;;22.80;59.20;;;;;;5051692;28;20454;-54
2021/08/29 07:36:26;;;;;;;2.67;0.65;;;22.90;59.50;;;;;;5051592;28;20092;-51
2021/08/29 07:38:51;;;;;;;3.85;0.77;;;22.80;59.50;;;;;;5051833;28;20021;-51
2021/08/29 07:41:17;;;;;;;2.60;0.75;;;22.90;59.50;;;;;;5051069;28;20029;-52
2021/08/29 07:43:43;;;;;;;4.70;1.00;;;23.00;59.80;;;;;;5052073;28;20485;-49
2021/08/29 07:46:09;;;;;;;3.10;0.68;;;22.90;59.70;;;;;;5050027;28;20072;-51
2021/08/29 07:48:35;;;;;;;1.77;0.70;;;23.00;59.70;;;;;;5051239;28;20474;-47
2021/08/29 07:51:01;;;;;;;0.98;0.65;;;23.00;59.60;;;;;;5051152;28;20092;-52
2021/08/29 07:53:27;;;;;;;3.60;0.75;;;23.10;59.60;;;;;;5051654;28;20028;-50
2021/08/29 07:55:53;;;;;;;1.08;0.60;;;23.10;59.70;;;;;;5051918;28;20074;-47
2021/08/29 07:58:19;;;;;;;2.35;0.88;;;23.20;59.50;;;;;;5050845;28;20017;-49
2021/08/29 08:00:45;;;;;;;2.30;0.80;;;23.20;59.40;;;;;;5051830;28;20060;-51
2021/08/29 08:03:10;;;;;;;2.30;0.82;;;23.20;60.00;;;;;;5050990;28;20029;-50
2021/08/29 08:05:37;;;;;;;1.70;1.05;;;23.30;59.30;;;;;;5051329;28;20040;-46
2021/08/29 08:08:03;;;;;;;1.27;0.60;;;23.30;59.10;;;;;;5050920;28;20078;-57
2021/08/29 08:10:30;;;;;;;1.17;0.60;;;23.30;59.00;;;;;;5051427;28;20096;-49
2021/08/29 08:12:57;;;;;;;3.80;0.80;;;23.30;59.10;;;;;;5054326;28;20025;-48
2021/08/29 08:15:22;;;;;;;1.88;0.68;;;23.30;59.00;;;;;;5054721;28;20025;-52
2021/08/29 08:17:48;;;;;;;3.88;0.80;;;23.30;59.10;;;;;;5044410;28;20025;-49
2021/08/29 08:20:14;;;;;;;3.05;0.65;;;23.30;59.40;;;;;;5056276;28;20158;-53
2021/08/29 08:22:40;;;;;;;4.43;0.80;;;23.40;59.30;;;;;;5056404;28;20025;-49
2021/08/29 08:25:07;;;;;;;1.48;0.60;;;23.50;59.20;;;;;;5054722;28;20036;-51
2021/08/29 08:27:33;;;;;;;4.03;1.17;;;23.50;59.20;;;;;;5055396;28;20017;-52
2021/08/29 08:29:59;;;;;;;6.57;0.70;;;23.50;59.10;;;;;;5055612;28;20029;-51
2021/08/29 08:32:24;;;;;;;4.22;0.60;;;23.50;59.20;;;;;;5055754;28;20433;-51
2021/08/29 08:34:50;;;;;;;3.80;0.63;;;23.50;59.00;;;;;;5055915;28;20044;-52
2021/08/29 08:37:16;;;;;;;2.33;0.85;;;23.60;59.10;;;;;;5055097;28;20029;-52
2021/08/29 08:39:42;;;;;;;2.25;0.50;;;23.60;58.90;;;;;;5055830;28;20025;-52
2021/08/29 08:42:08;;;;;;;3.80;0.50;;;23.60;59.20;;;;;;5055007;28;20025;-48
2021/08/29 08:44:33;;;;;;;0.35;0.35;;;23.60;59.20;;;;;;5055306;28;20079;-46
2021/08/29 08:47:02;;;;;;;2.72;0.57;;;23.60;59.00;;;;;;5055060;28;20063;-48
2021/08/29 08:49:28;;;;;;;4.55;0.75;;;23.70;58.80;;;;;;5055153;28;20042;-48
2021/08/29 08:51:57;;;;;;;20.65;1.30;;;23.70;58.70;;;;;;5055103;28;20069;-46
2021/08/29 08:54:23;;;;;;;11.25;0.63;;;23.70;58.50;;;;;;5054900;28;20116;-48
2021/08/29 08:56:51;;;;;;;1.40;0.50;;;23.60;59.00;;;;;;5055334;28;20047;-47
2021/08/29 08:59:17;;;;;;;0.82;0.50;;;23.70;59.00;;;;;;5054660;28;20375;-47
2021/08/29 09:01:43;;;;;;;2.30;0.50;;;23.70;58.70;;;;;;5055448;28;20037;-50
2021/08/29 09:04:10;;;;;;;1.25;0.70;;;23.80;58.60;;;;;;5054708;28;20033;-47
2021/08/29 09:06:36;;;;;;;3.40;0.50;;;23.80;58.50;;;;;;5055048;28;20029;-47
2021/08/29 09:09:03;;;;;;;2.08;0.57;;;23.80;58.50;;;;;;5054682;28;20029;-56
2021/08/29 09:11:33;;;;;;;2.28;0.52;;;23.80;58.40;;;;;;5055006;28;20029;-50
2021/08/29 09:13:59;;;;;;;1.60;0.60;;;23.80;58.40;;;;;;5055484;28;20036;-46
2021/08/29 09:16:28;;;;;;;0.77;0.50;;;23.90;58.60;;;;;;5052610;28;20029;-52
2021/08/29 09:18:58;;;;;;;1.67;0.52;;;23.90;58.40;;;;;;5054643;28;20033;-48
2021/08/29 09:21:28;;;;;;;1.40;0.60;;;23.80;58.30;;;;;;5053994;28;20509;-47
2021/08/29 09:23:56;;;;;;;3.50;0.40;;;23.90;58.40;;;;;;5054338;28;20065;-50
2021/08/29 09:26:24;;;;;;;7.07;0.60;;;23.90;58.40;;;;;;5053066;28;20364;-46
2021/08/29 09:28:55;;;;;;;1.98;0.50;;;23.90;58.50;;;;;;5054883;28;20029;-48
2021/08/29 09:31:21;;;;;;;0.30;0.30;;;23.90;58.10;;;;;;5054239;28;20379;-48
2021/08/29 09:34:00;;;;;;;3.40;0.50;;;23.90;58.30;;;;;;5054687;28;20029;-51
2021/08/29 09:36:30;;;;;;;2.63;0.40;;;23.90;58.00;;;;;;5054070;28;20039;-47
2021/08/29 09:39:14;;;;;;;1.30;0.38;;;23.90;58.10;;;;;;5054467;28;20032;-46
2021/08/29 09:41:41;;;;;;;1.02;0.38;;;23.80;58.40;;;;;;5054757;28;20044;-47
2021/08/29 09:44:10;;;;;;;3.28;0.30;;;23.90;58.40;;;;;;5053566;28;20060;-49
2021/08/29 09:46:48;;;;;;;1.90;0.45;;;23.90;58.20;;;;;;5054334;28;20021;-46
2021/08/29 09:49:28;;;;;;;0.68;0.35;;;23.90;58.30;;;;;;5053847;28;20048;-45
2021/08/29 09:51:57;;;;;;;1.40;0.43;;;23.90;58.20;;;;;;5053930;28;20039;-45
2021/08/29 09:54:34;;;;;;;1.00;0.40;;;23.90;58.20;;;;;;5053715;28;20048;-43
2021/08/29 09:57:04;;;;;;;1.42;0.40;;;23.90;58.30;;;;;;5053997;28;20086;-49
2021/08/29 09:59:43;;;;;;;2.72;0.40;;;23.90;58.20;;;;;;5054461;28;20080;-44
2021/08/29 10:02:11;;;;;;;0.52;0.40;;;23.90;58.20;;;;;;5053491;28;20033;-45
2021/08/29 10:04:37;;;;;;;3.70;0.40;;;23.90;58.80;;;;;;5054340;28;20090;-44
2021/08/29 10:07:13;;;;;;;0.82;0.30;;;24.00;58.20;;;;;;5054017;28;20029;-46
2021/08/29 10:09:38;;;;;;;0.35;0.30;;;24.00;58.20;;;;;;5054107;28;20044;-44
2021/08/29 10:12:05;;;;;;;0.80;0.40;;;24.00;58.20;;;;;;5054038;28;20033;-46
2021/08/29 10:14:32;;;;;;;1.40;0.30;;;24.00;58.40;;;;;;5053980;28;20037;-47
2021/08/29 10:16:58;;;;;;;4.88;0.70;;;24.00;58.30;;;;;;5053582;28;20029;-47
2021/08/29 10:19:27;;;;;;;3.40;1.15;;;24.00;58.30;;;;;;5053197;28;20487;-49
2021/08/29 10:21:53;;;;;;;5.43;0.40;;;23.90;58.40;;;;;;5053576;28;20432;-46
2021/08/29 10:24:20;;;;;;;0.47;0.30;;;23.80;59.00;;;;;;5052863;28;20045;-46
2021/08/29 10:26:51;;;;;;;6.50;0.47;;;23.70;59.00;;;;;;5053661;28;20049;-47
2021/08/29 10:29:18;;;;;;;4.90;0.50;;;23.70;59.40;;;;;;5052982;28;20138;-49
2021/08/29 10:31:53;;;;;;;3.92;0.35;;;23.80;59.00;;;;;;5053529;28;20041;-51
2021/08/29 10:34:19;;;;;;;3.28;0.50;;;23.80;59.20;;;;;;5051944;28;20040;-51
2021/08/29 10:36:45;;;;;;;1.50;0.57;;;23.70;59.40;;;;;;5053640;28;20029;-46
2021/08/29 10:39:11;;;;;;;14.70;2.65;;;23.70;59.50;;;;;;5052890;28;20382;-47
2021/08/29 10:41:38;;;;;;;1.15;0.50;;;23.60;59.90;;;;;;5053679;28;20017;-48
2021/08/29 10:44:05;;;;;;;15.95;1.60;;;23.60;59.70;;;;;;5053233;28;20031;-46
2021/08/29 10:46:34;;;;;;;1.08;0.50;;;23.60;59.30;;;;;;5052590;28;20032;-46
2021/08/29 10:49:00;;;;;;;8.07;1.15;;;23.60;59.60;;;;;;5053342;28;20032;-46
2021/08/29 10:51:27;;;;;;;4.00;0.70;;;23.60;59.90;;;;;;5052399;28;20485;-46
2021/08/29 10:53:55;;;;;;;4.00;0.75;;;23.70;60.00;;;;;;5053011;28;20029;-46
2021/08/29 10:56:25;;;;;;;6.55;1.00;;;23.70;60.00;;;;;;5052499;28;20029;-48
2021/08/29 10:59:09;;;;;;;4.72;0.77;;;23.80;60.10;;;;;;5052930;28;20493;-47
2021/08/29 11:01:46;;;;;;;4.05;0.90;;;23.80;60.00;;;;;;5032998;28;20125;-48
2021/08/29 11:04:18;;;;;;;3.40;1.10;;;23.80;60.00;;;;;;5032345;28;20530;-46
2021/08/29 11:06:52;;;;;;;6.13;1.10;;;23.80;60.00;;;;;;5033112;28;20071;-46
2021/08/29 11:09:36;;;;;;;3.33;0.90;;;23.80;60.10;;;;;;5031896;28;20463;-47
2021/08/29 11:12:23;;;;;;;3.38;1.02;;;23.80;60.20;;;;;;5033046;28;20026;-47
2021/08/29 11:14:54;;;;;;;5.25;1.23;;;23.70;60.10;;;;;;5031879;28;20047;-46
2021/08/29 11:17:30;;;;;;;3.25;1.00;;;23.70;60.30;;;;;;5032106;28;20032;-46
2021/08/29 11:20:02;;;;;;;2.85;1.23;;;23.70;60.40;;;;;;5032855;28;20061;-48
2021/08/29 11:22:47;;;;;;;6.30;1.80;;;23.60;60.60;;;;;;5032218;28;20037;-48
2021/08/29 11:25:14;;;;;;;5.07;1.60;;;23.60;60.90;;;;;;5032292;28;20037;-46
2021/08/29 11:27:47;;;;;;;5.88;1.63;;;23.50;61.10;;;;;;5032754;28;20037;-47
2021/08/29 11:30:35;;;;;;;4.22;1.63;;;23.60;61.10;;;;;;5032067;28;20036;-47
2021/08/29 11:33:13;;;;;;;9.63;2.47;;;23.50;61.20;;;;;;5032217;28;20091;-48
2021/08/29 11:35:48;;;;;;;8.93;2.38;;;23.50;61.30;;;;;;5032589;28;20391;-46
2021/08/29 11:38:33;;;;;;;6.15;2.05;;;23.50;61.30;;;;;;5031975;28;20033;-47
2021/08/29 11:41:10;;;;;;;10.63;4.35;;;23.60;61.20;;;;;;5032411;28;20063;-46
2021/08/29 11:43:38;;;;;;;15.18;7.18;;;23.60;61.20;;;;;;5030952;28;20364;-48
2021/08/29 11:46:12;;;;;;;14.23;4.88;;;23.60;61.20;;;;;;5031824;28;20200;-47
2021/08/29 11:48:56;;;;;;;10.00;4.72;;;23.60;60.90;;;;;;5032245;28;20032;-46
2021/08/29 11:51:31;;;;;;;5.68;2.40;;;23.60;60.40;;;;;;5031847;28;20379;-50
2021/08/29 11:53:58;;;;;;;5.75;2.20;;;23.70;60.20;;;;;;5032221;28;20052;-47
2021/08/29 11:56:29;;;;;;;8.43;2.42;;;23.70;60.00;;;;;;5031379;28;20079;-49
2021/08/29 11:58:56;;;;;;;8.17;2.10;;;23.70;60.20;;;;;;5032302;28;20037;-50
2021/08/29 12:01:22;;;;;;;4.78;1.92;;;23.70;59.80;;;;;;5049949;28;20056;-49
2021/08/29 12:03:48;;;;;;;3.15;1.55;;;23.60;60.20;;;;;;5052392;28;20433;-48
2021/08/29 12:06:32;;;;;;;5.50;1.70;;;23.70;59.80;;;;;;5051132;28;20029;-47
2021/08/29 12:09:06;;;;;;;5.50;1.80;;;23.60;60.20;;;;;;5052023;28;20466;-45
2021/08/29 12:11:36;;;;;;;5.72;1.60;;;23.60;60.10;;;;;;5051490;28;20037;-45
2021/08/29 12:14:14;;;;;;;6.32;1.40;;;23.60;60.00;;;;;;5052789;28;20031;-45
2021/08/29 12:16:45;;;;;;;5.75;1.40;;;23.60;60.10;;;;;;5051932;28;20049;-47
2021/08/29 12:19:14;;;;;;;6.10;1.70;;;23.60;59.90;;;;;;5052000;28;20025;-57
2021/08/29 12:21:44;;;;;;;5.82;1.90;;;23.60;60.10;;;;;;5051726;28;20256;-46
2021/08/29 12:24:14;;;;;;;3.92;1.63;;;23.60;59.80;;;;;;5051855;28;20029;-46
2021/08/29 12:26:40;;;;;;;3.60;1.33;;;23.50;60.10;;;;;;5051976;28;20067;-50
2021/08/29 12:29:07;;;;;;;2.17;1.17;;;23.50;60.50;;;;;;5052116;28;20033;-50
2021/08/29 12:31:40;;;;;;;3.08;1.30;;;23.60;60.50;;;;;;5051060;28;20474;-49
2021/08/29 12:34:07;;;;;;;3.20;1.55;;;23.60;60.50;;;;;;5051366;28;20474;-47
2021/08/29 12:36:33;;;;;;;3.70;1.63;;;23.60;60.50;;;;;;5050714;28;20032;-50
2021/08/29 12:39:00;;;;;;;3.90;1.33;;;23.60;60.70;;;;;;5051176;28;20398;-52
2021/08/29 12:41:27;;;;;;;6.07;1.90;;;23.60;60.60;;;;;;5050860;28;20101;-48
2021/08/29 12:44:02;;;;;;;5.88;1.40;;;23.60;60.20;;;;;;5051827;28;20071;-48
2021/08/29 12:46:29;;;;;;;2.05;1.10;;;23.60;60.10;;;;;;5051067;28;20363;-49
2021/08/29 12:48:55;;;;;;;3.05;1.40;;;23.60;60.00;;;;;;5051615;28;20096;-49